sensor_id;sensor_type;location;lat;lon;timestamp;temperature;humidity
37356;DHT22;48747;50.250;18.848;2023-07-13T00:01:07;20.20;99.90
37356;DHT22;48747;50.250;18.848;2023-07-13T00:03:10;20.10;99.90
37356;DHT22;48747;50.250;18.848;2023-07-13T00:05:15;20.10;99.90
37356;DHT22;48747;50.250;18.848;2023-07-13T00:07:18;20.00;99.90
37356;DHT22;48747;50.250;18.848;2023-07-13T00:09:23;20.00;99.90
37356;DHT22;48747;50.250;18.848;2023-07-13T00:11:28;19.90;99.90
37356;DHT22;48747;50.250;18.848;2023-07-13T00:13:32;19.90;99.90
37356;DHT22;48747;50.250;18.848;2023-07-13T00:15:35;20.00;99.90
37356;DHT22;48747;50.250;18.848;2023-07-13T00:17:39;20.00;99.90
37356;DHT22;48747;50.250;18.848;2023-07-13T00:19:42;19.90;99.90
37356;DHT22;48747;50.250;18.848;2023-07-13T00:21:47;19.90;99.90
37356;DHT22;48747;50.250;18.848;2023-07-13T00:23:50;19.80;99.90
37356;DHT22;48747;50.250;18.848;2023-07-13T00:25:53;19.80;99.90
37356;DHT22;48747;50.250;18.848;2023-07-13T00:27:58;19.80;99.90
37356;DHT22;48747;50.250;18.848;2023-07-13T00:30:02;19.80;99.90
37356;DHT22;48747;50.250;18.848;2023-07-13T00:32:06;19.90;99.90
37356;DHT22;48747;50.250;18.848;2023-07-13T00:34:11;19.90;99.90
37356;DHT22;48747;50.250;18.848;2023-07-13T00:36:14;19.90;99.90
37356;DHT22;48747;50.250;18.848;2023-07-13T00:38:17;19.80;99.90
37356;DHT22;48747;50.250;18.848;2023-07-13T00:40:21;19.80;99.90
37356;DHT22;48747;50.250;18.848;2023-07-13T00:42:24;19.80;99.90
37356;DHT22;48747;50.250;18.848;2023-07-13T00:44:27;19.80;99.90
37356;DHT22;48747;50.250;18.848;2023-07-13T00:46:32;19.80;99.90
37356;DHT22;48747;50.250;18.848;2023-07-13T00:48:40;19.90;99.90
37356;DHT22;48747;50.250;18.848;2023-07-13T00:50:47;19.90;99.90
37356;DHT22;48747;50.250;18.848;2023-07-13T00:52:54;19.90;99.90
37356;DHT22;48747;50.250;18.848;2023-07-13T00:55:00;19.90;99.90
37356;DHT22;48747;50.250;18.848;2023-07-13T00:57:06;19.90;99.90
37356;DHT22;48747;50.250;18.848;2023-07-13T00:59:12;19.90;99.90
37356;DHT22;48747;50.250;18.848;2023-07-13T01:01:16;19.90;99.90
37356;DHT22;48747;50.250;18.848;2023-07-13T01:03:19;19.80;99.90
37356;DHT22;48747;50.250;18.848;2023-07-13T01:05:25;19.70;99.90
37356;DHT22;48747;50.250;18.848;2023-07-13T01:07:28;19.80;99.90
37356;DHT22;48747;50.250;18.848;2023-07-13T01:09:35;19.80;99.90
37356;DHT22;48747;50.250;18.848;2023-07-13T01:11:38;19.80;99.90
37356;DHT22;48747;50.250;18.848;2023-07-13T01:13:43;19.80;99.90
37356;DHT22;48747;50.250;18.848;2023-07-13T01:15:48;19.70;99.90
37356;DHT22;48747;50.250;18.848;2023-07-13T01:17:51;19.80;99.90
37356;DHT22;48747;50.250;18.848;2023-07-13T01:19:55;19.80;99.90
37356;DHT22;48747;50.250;18.848;2023-07-13T01:21:58;19.80;99.90
37356;DHT22;48747;50.250;18.848;2023-07-13T01:24:01;19.90;99.90
37356;DHT22;48747;50.250;18.848;2023-07-13T01:26:04;19.90;99.90
37356;DHT22;48747;50.250;18.848;2023-07-13T01:28:08;20.00;99.90
37356;DHT22;48747;50.250;18.848;2023-07-13T01:30:11;20.00;99.90
37356;DHT22;48747;50.250;18.848;2023-07-13T01:32:19;20.00;99.90
37356;DHT22;48747;50.250;18.848;2023-07-13T01:34:24;20.00;99.90
37356;DHT22;48747;50.250;18.848;2023-07-13T01:36:28;19.90;99.90
37356;DHT22;48747;50.250;18.848;2023-07-13T01:38:34;19.90;99.90
37356;DHT22;48747;50.250;18.848;2023-07-13T01:40:38;20.00;99.90
37356;DHT22;48747;50.250;18.848;2023-07-13T01:42:42;20.00;99.90
37356;DHT22;48747;50.250;18.848;2023-07-13T01:44:45;20.00;99.90
37356;DHT22;48747;50.250;18.848;2023-07-13T01:46:48;20.00;99.90
37356;DHT22;48747;50.250;18.848;2023-07-13T01:48:54;20.00;99.90
37356;DHT22;48747;50.250;18.848;2023-07-13T01:51:01;19.90;99.90
37356;DHT22;48747;50.250;18.848;2023-07-13T01:53:04;19.90;99.90
37356;DHT22;48747;50.250;18.848;2023-07-13T01:55:08;19.80;99.90
37356;DHT22;48747;50.250;18.848;2023-07-13T01:57:11;19.80;99.90
37356;DHT22;48747;50.250;18.848;2023-07-13T01:59:14;19.80;99.90
37356;DHT22;48747;50.250;18.848;2023-07-13T02:01:17;19.70;99.90
37356;DHT22;48747;50.250;18.848;2023-07-13T02:03:20;19.70;99.90
37356;DHT22;48747;50.250;18.848;2023-07-13T02:05:23;19.60;99.90
37356;DHT22;48747;50.250;18.848;2023-07-13T02:07:26;19.60;99.90
37356;DHT22;48747;50.250;18.848;2023-07-13T02:09:29;19.60;99.90
37356;DHT22;48747;50.250;18.848;2023-07-13T02:11:33;19.60;99.90
37356;DHT22;48747;50.250;18.848;2023-07-13T02:13:36;19.60;99.90
37356;DHT22;48747;50.250;18.848;2023-07-13T02:15:40;19.60;99.90
37356;DHT22;48747;50.250;18.848;2023-07-13T02:17:43;19.60;99.90
37356;DHT22;48747;50.250;18.848;2023-07-13T02:19:46;19.50;99.90
37356;DHT22;48747;50.250;18.848;2023-07-13T02:21:49;19.40;99.90
37356;DHT22;48747;50.250;18.848;2023-07-13T02:23:54;19.40;99.90
37356;DHT22;48747;50.250;18.848;2023-07-13T02:25:58;19.30;99.90
37356;DHT22;48747;50.250;18.848;2023-07-13T02:28:02;19.30;99.90
37356;DHT22;48747;50.250;18.848;2023-07-13T02:30:06;19.30;99.90
37356;DHT22;48747;50.250;18.848;2023-07-13T02:32:09;19.40;99.90
37356;DHT22;48747;50.250;18.848;2023-07-13T02:34:12;19.30;99.90
37356;DHT22;48747;50.250;18.848;2023-07-13T02:36:15;19.30;99.90
37356;DHT22;48747;50.250;18.848;2023-07-13T02:38:20;19.30;99.90
37356;DHT22;48747;50.250;18.848;2023-07-13T02:40:23;19.40;99.90
37356;DHT22;48747;50.250;18.848;2023-07-13T02:42:26;19.40;99.90
37356;DHT22;48747;50.250;18.848;2023-07-13T02:44:34;19.40;99.90
37356;DHT22;48747;50.250;18.848;2023-07-13T02:46:35;19.30;99.90
37356;DHT22;48747;50.250;18.848;2023-07-13T02:48:39;19.20;99.90
37356;DHT22;48747;50.250;18.848;2023-07-13T02:50:43;19.10;99.90
37356;DHT22;48747;50.250;18.848;2023-07-13T02:52:47;19.10;99.90
37356;DHT22;48747;50.250;18.848;2023-07-13T02:54:51;19.20;99.90
37356;DHT22;48747;50.250;18.848;2023-07-13T02:56:54;19.20;99.90
37356;DHT22;48747;50.250;18.848;2023-07-13T02:58:57;19.20;99.90
37356;DHT22;48747;50.250;18.848;2023-07-13T03:01:05;19.20;99.90
37356;DHT22;48747;50.250;18.848;2023-07-13T03:03:06;19.20;99.90
37356;DHT22;48747;50.250;18.848;2023-07-13T03:05:09;19.10;99.90
37356;DHT22;48747;50.250;18.848;2023-07-13T03:07:14;19.20;99.90
37356;DHT22;48747;50.250;18.848;2023-07-13T03:09:18;19.20;99.90
37356;DHT22;48747;50.250;18.848;2023-07-13T03:11:21;19.20;99.90
37356;DHT22;48747;50.250;18.848;2023-07-13T03:13:25;19.30;99.90
37356;DHT22;48747;50.250;18.848;2023-07-13T03:15:29;19.40;99.90
37356;DHT22;48747;50.250;18.848;2023-07-13T03:17:32;19.40;99.90
37356;DHT22;48747;50.250;18.848;2023-07-13T03:19:36;19.40;99.90
37356;DHT22;48747;50.250;18.848;2023-07-13T03:21:39;19.40;99.90
37356;DHT22;48747;50.250;18.848;2023-07-13T03:23:43;19.40;99.90
37356;DHT22;48747;50.250;18.848;2023-07-13T03:25:47;19.40;99.90
37356;DHT22;48747;50.250;18.848;2023-07-13T03:27:50;19.50;99.90
37356;DHT22;48747;50.250;18.848;2023-07-13T03:29:57;19.50;99.90
37356;DHT22;48747;50.250;18.848;2023-07-13T03:31:58;19.60;99.90
37356;DHT22;48747;50.250;18.848;2023-07-13T03:34:01;19.50;99.90
37356;DHT22;48747;50.250;18.848;2023-07-13T03:36:06;19.60;99.90
37356;DHT22;48747;50.250;18.848;2023-07-13T03:38:10;19.60;99.90
37356;DHT22;48747;50.250;18.848;2023-07-13T03:40:13;19.50;99.90
37356;DHT22;48747;50.250;18.848;2023-07-13T03:42:16;19.60;99.90
37356;DHT22;48747;50.250;18.848;2023-07-13T03:44:19;19.50;99.90
37356;DHT22;48747;50.250;18.848;2023-07-13T03:46:23;19.60;99.90
37356;DHT22;48747;50.250;18.848;2023-07-13T03:48:26;19.60;99.90
37356;DHT22;48747;50.250;18.848;2023-07-13T03:50:31;19.60;99.90
37356;DHT22;48747;50.250;18.848;2023-07-13T03:52:34;19.70;99.90
37356;DHT22;48747;50.250;18.848;2023-07-13T03:54:37;19.70;99.90
37356;DHT22;48747;50.250;18.848;2023-07-13T03:56:40;19.80;99.90
37356;DHT22;48747;50.250;18.848;2023-07-13T03:58:45;19.80;99.90
37356;DHT22;48747;50.250;18.848;2023-07-13T04:00:49;19.80;99.90
37356;DHT22;48747;50.250;18.848;2023-07-13T04:02:52;19.90;99.90
37356;DHT22;48747;50.250;18.848;2023-07-13T04:04:55;19.90;99.90
37356;DHT22;48747;50.250;18.848;2023-07-13T04:06:58;19.90;99.90
37356;DHT22;48747;50.250;18.848;2023-07-13T04:09:03;20.00;99.90
37356;DHT22;48747;50.250;18.848;2023-07-13T04:11:08;20.00;99.90
37356;DHT22;48747;50.250;18.848;2023-07-13T04:13:11;20.00;99.90
37356;DHT22;48747;50.250;18.848;2023-07-13T04:15:14;20.00;99.90
37356;DHT22;48747;50.250;18.848;2023-07-13T04:17:17;20.10;99.90
37356;DHT22;48747;50.250;18.848;2023-07-13T04:19:22;20.10;99.90
37356;DHT22;48747;50.250;18.848;2023-07-13T04:21:30;20.10;99.90
37356;DHT22;48747;50.250;18.848;2023-07-13T04:23:36;20.10;99.90
37356;DHT22;48747;50.250;18.848;2023-07-13T04:25:44;20.10;99.90
37356;DHT22;48747;50.250;18.848;2023-07-13T04:27:43;20.20;99.90
37356;DHT22;48747;50.250;18.848;2023-07-13T04:29:46;20.30;99.90
37356;DHT22;48747;50.250;18.848;2023-07-13T04:31:51;20.40;99.90
37356;DHT22;48747;50.250;18.848;2023-07-13T04:33:54;20.40;99.90
37356;DHT22;48747;50.250;18.848;2023-07-13T04:36:03;20.40;99.90
37356;DHT22;48747;50.250;18.848;2023-07-13T04:38:03;20.50;99.90
37356;DHT22;48747;50.250;18.848;2023-07-13T04:40:11;20.50;99.90
37356;DHT22;48747;50.250;18.848;2023-07-13T04:42:14;20.60;99.90
37356;DHT22;48747;50.250;18.848;2023-07-13T04:44:17;20.60;99.90
37356;DHT22;48747;50.250;18.848;2023-07-13T04:46:20;20.70;99.90
37356;DHT22;48747;50.250;18.848;2023-07-13T04:48:23;20.60;99.90
37356;DHT22;48747;50.250;18.848;2023-07-13T04:50:27;20.80;99.90
37356;DHT22;48747;50.250;18.848;2023-07-13T04:52:30;20.90;99.90
37356;DHT22;48747;50.250;18.848;2023-07-13T04:54:40;21.00;99.90
37356;DHT22;48747;50.250;18.848;2023-07-13T04:56:41;21.10;99.90
37356;DHT22;48747;50.250;18.848;2023-07-13T04:58:44;21.10;99.90
37356;DHT22;48747;50.250;18.848;2023-07-13T05:00:47;21.20;99.90
37356;DHT22;48747;50.250;18.848;2023-07-13T05:02:51;21.20;99.90
37356;DHT22;48747;50.250;18.848;2023-07-13T05:04:56;21.30;99.90
37356;DHT22;48747;50.250;18.848;2023-07-13T05:07:00;21.30;99.90
37356;DHT22;48747;50.250;18.848;2023-07-13T05:09:04;21.30;99.90
37356;DHT22;48747;50.250;18.848;2023-07-13T05:11:12;21.30;99.90
37356;DHT22;48747;50.250;18.848;2023-07-13T05:13:15;21.40;99.90
37356;DHT22;48747;50.250;18.848;2023-07-13T05:15:20;21.40;99.90
37356;DHT22;48747;50.250;18.848;2023-07-13T05:17:23;21.50;99.90
37356;DHT22;48747;50.250;18.848;2023-07-13T05:19:27;21.60;99.90
37356;DHT22;48747;50.250;18.848;2023-07-13T05:21:30;21.70;99.90
37356;DHT22;48747;50.250;18.848;2023-07-13T05:23:34;21.70;99.90
37356;DHT22;48747;50.250;18.848;2023-07-13T05:25:38;21.80;99.90
37356;DHT22;48747;50.250;18.848;2023-07-13T05:27:43;22.00;99.90
37356;DHT22;48747;50.250;18.848;2023-07-13T05:29:47;22.20;99.90
37356;DHT22;48747;50.250;18.848;2023-07-13T05:31:52;22.20;99.90
37356;DHT22;48747;50.250;18.848;2023-07-13T05:33:55;22.20;99.90
37356;DHT22;48747;50.250;18.848;2023-07-13T05:35:58;22.30;99.90
37356;DHT22;48747;50.250;18.848;2023-07-13T05:38:02;22.40;99.90
37356;DHT22;48747;50.250;18.848;2023-07-13T05:40:06;22.40;99.90
37356;DHT22;48747;50.250;18.848;2023-07-13T05:42:09;22.50;99.90
37356;DHT22;48747;50.250;18.848;2023-07-13T05:44:12;22.60;99.90
37356;DHT22;48747;50.250;18.848;2023-07-13T05:46:15;22.50;99.90
37356;DHT22;48747;50.250;18.848;2023-07-13T05:48:18;22.50;99.90
37356;DHT22;48747;50.250;18.848;2023-07-13T05:50:22;22.60;99.90
37356;DHT22;48747;50.250;18.848;2023-07-13T05:52:25;22.60;99.90
37356;DHT22;48747;50.250;18.848;2023-07-13T05:54:29;22.60;99.90
37356;DHT22;48747;50.250;18.848;2023-07-13T05:56:32;22.60;99.90
37356;DHT22;48747;50.250;18.848;2023-07-13T05:58:35;22.70;99.90
37356;DHT22;48747;50.250;18.848;2023-07-13T06:00:38;22.70;99.90
37356;DHT22;48747;50.250;18.848;2023-07-13T06:02:41;22.70;99.90
37356;DHT22;48747;50.250;18.848;2023-07-13T06:04:44;22.70;99.90
37356;DHT22;48747;50.250;18.848;2023-07-13T06:06:48;22.80;99.90
37356;DHT22;48747;50.250;18.848;2023-07-13T06:08:52;22.90;99.90
37356;DHT22;48747;50.250;18.848;2023-07-13T06:11:31;22.90;99.90
37356;DHT22;48747;50.250;18.848;2023-07-13T06:13:07;22.90;99.90
37356;DHT22;48747;50.250;18.848;2023-07-13T06:15:11;22.90;99.90
37356;DHT22;48747;50.250;18.848;2023-07-13T06:17:14;23.00;99.90
37356;DHT22;48747;50.250;18.848;2023-07-13T06:19:22;23.10;99.90
37356;DHT22;48747;50.250;18.848;2023-07-13T06:21:22;23.30;99.90
37356;DHT22;48747;50.250;18.848;2023-07-13T06:23:26;23.50;99.90
37356;DHT22;48747;50.250;18.848;2023-07-13T06:25:29;23.60;99.90
37356;DHT22;48747;50.250;18.848;2023-07-13T06:27:32;23.60;99.90
37356;DHT22;48747;50.250;18.848;2023-07-13T06:29:35;23.80;99.90
37356;DHT22;48747;50.250;18.848;2023-07-13T06:31:38;23.90;99.90
37356;DHT22;48747;50.250;18.848;2023-07-13T06:33:41;24.10;99.90
37356;DHT22;48747;50.250;18.848;2023-07-13T06:35:45;24.30;99.90
37356;DHT22;48747;50.250;18.848;2023-07-13T06:37:48;24.40;99.90
37356;DHT22;48747;50.250;18.848;2023-07-13T06:39:51;24.40;99.90
37356;DHT22;48747;50.250;18.848;2023-07-13T06:41:55;24.40;99.90
37356;DHT22;48747;50.250;18.848;2023-07-13T06:43:58;24.50;99.90
37356;DHT22;48747;50.250;18.848;2023-07-13T06:46:01;24.40;99.90
37356;DHT22;48747;50.250;18.848;2023-07-13T06:48:04;24.40;99.90
37356;DHT22;48747;50.250;18.848;2023-07-13T06:50:08;24.50;99.90
37356;DHT22;48747;50.250;18.848;2023-07-13T06:52:11;24.60;99.90
37356;DHT22;48747;50.250;18.848;2023-07-13T06:54:17;24.60;99.90
37356;DHT22;48747;50.250;18.848;2023-07-13T06:56:20;24.50;99.90
37356;DHT22;48747;50.250;18.848;2023-07-13T06:58:23;24.50;99.90
37356;DHT22;48747;50.250;18.848;2023-07-13T07:00:26;24.40;99.90
37356;DHT22;48747;50.250;18.848;2023-07-13T07:02:29;24.40;99.90
37356;DHT22;48747;50.250;18.848;2023-07-13T07:04:32;24.30;99.90
37356;DHT22;48747;50.250;18.848;2023-07-13T07:06:35;24.30;99.90
37356;DHT22;48747;50.250;18.848;2023-07-13T07:08:39;24.10;99.90
37356;DHT22;48747;50.250;18.848;2023-07-13T07:10:42;24.10;99.90
37356;DHT22;48747;50.250;18.848;2023-07-13T07:12:45;24.00;99.90
37356;DHT22;48747;50.250;18.848;2023-07-13T07:14:48;23.90;99.90
37356;DHT22;48747;50.250;18.848;2023-07-13T07:16:51;23.90;99.90
37356;DHT22;48747;50.250;18.848;2023-07-13T07:18:54;23.80;99.90
37356;DHT22;48747;50.250;18.848;2023-07-13T07:20:57;23.80;99.90
37356;DHT22;48747;50.250;18.848;2023-07-13T07:23:00;23.70;99.90
37356;DHT22;48747;50.250;18.848;2023-07-13T07:25:04;23.60;99.90
37356;DHT22;48747;50.250;18.848;2023-07-13T07:27:07;23.60;99.90
37356;DHT22;48747;50.250;18.848;2023-07-13T07:29:10;23.50;99.90
37356;DHT22;48747;50.250;18.848;2023-07-13T07:31:13;23.50;99.90
37356;DHT22;48747;50.250;18.848;2023-07-13T07:33:18;23.40;99.90
37356;DHT22;48747;50.250;18.848;2023-07-13T07:35:23;23.30;99.90
37356;DHT22;48747;50.250;18.848;2023-07-13T07:37:26;23.30;99.90
37356;DHT22;48747;50.250;18.848;2023-07-13T07:39:31;23.20;99.90
37356;DHT22;48747;50.250;18.848;2023-07-13T07:41:35;23.10;99.90
37356;DHT22;48747;50.250;18.848;2023-07-13T07:43:38;23.10;99.90
37356;DHT22;48747;50.250;18.848;2023-07-13T07:45:47;23.10;99.90
37356;DHT22;48747;50.250;18.848;2023-07-13T07:47:48;23.10;99.90
37356;DHT22;48747;50.250;18.848;2023-07-13T07:50:02;23.10;99.90
37356;DHT22;48747;50.250;18.848;2023-07-13T07:52:03;23.10;99.90
37356;DHT22;48747;50.250;18.848;2023-07-13T07:54:08;23.10;99.90
37356;DHT22;48747;50.250;18.848;2023-07-13T07:56:13;23.20;99.90
37356;DHT22;48747;50.250;18.848;2023-07-13T07:58:18;23.20;99.90
37356;DHT22;48747;50.250;18.848;2023-07-13T08:00:22;23.20;99.90
37356;DHT22;48747;50.250;18.848;2023-07-13T08:02:27;23.40;99.90
37356;DHT22;48747;50.250;18.848;2023-07-13T08:04:30;23.60;99.90
37356;DHT22;48747;50.250;18.848;2023-07-13T08:06:35;23.70;99.90
37356;DHT22;48747;50.250;18.848;2023-07-13T08:08:40;23.90;99.90
37356;DHT22;48747;50.250;18.848;2023-07-13T08:10:45;24.00;99.90
37356;DHT22;48747;50.250;18.848;2023-07-13T08:12:47;24.00;99.90
37356;DHT22;48747;50.250;18.848;2023-07-13T08:14:51;24.00;99.90
37356;DHT22;48747;50.250;18.848;2023-07-13T08:16:59;24.10;99.90
37356;DHT22;48747;50.250;18.848;2023-07-13T08:19:02;24.30;99.90
37356;DHT22;48747;50.250;18.848;2023-07-13T08:21:09;24.50;99.90
37356;DHT22;48747;50.250;18.848;2023-07-13T08:23:18;24.70;99.90
37356;DHT22;48747;50.250;18.848;2023-07-13T08:27:42;25.10;99.90
37356;DHT22;48747;50.250;18.848;2023-07-13T08:29:53;24.90;99.90
37356;DHT22;48747;50.250;18.848;2023-07-13T08:31:52;24.80;99.90
37356;DHT22;48747;50.250;18.848;2023-07-13T08:34:01;24.80;99.90
37356;DHT22;48747;50.250;18.848;2023-07-13T08:38:56;24.90;99.90
37356;DHT22;48747;50.250;18.848;2023-07-13T08:41:11;25.10;99.90
37356;DHT22;48747;50.250;18.848;2023-07-13T08:43:22;25.10;99.90
37356;DHT22;48747;50.250;18.848;2023-07-13T08:47:54;25.30;99.90
37356;DHT22;48747;50.250;18.848;2023-07-13T08:50:15;25.10;99.90
37356;DHT22;48747;50.250;18.848;2023-07-13T08:54:55;24.90;99.90
37356;DHT22;48747;50.250;18.848;2023-07-13T08:57:03;24.80;99.90
37356;DHT22;48747;50.250;18.848;2023-07-13T08:59:15;24.70;99.90
37356;DHT22;48747;50.250;18.848;2023-07-13T09:03:30;24.50;99.90
37356;DHT22;48747;50.250;18.848;2023-07-13T09:05:38;24.40;99.90
37356;DHT22;48747;50.250;18.848;2023-07-13T09:10:28;24.10;99.90
37356;DHT22;48747;50.250;18.848;2023-07-13T09:12:36;23.80;99.90
37356;DHT22;48747;50.250;18.848;2023-07-13T09:14:49;23.60;99.90
37356;DHT22;48747;50.250;18.848;2023-07-13T09:16:54;23.40;99.90
37356;DHT22;48747;50.250;18.848;2023-07-13T09:19:02;23.20;99.90
37356;DHT22;48747;50.250;18.848;2023-07-13T09:21:16;23.00;99.90
37356;DHT22;48747;50.250;18.848;2023-07-13T09:23:22;22.90;99.90
37356;DHT22;48747;50.250;18.848;2023-07-13T09:25:34;22.80;99.90
37356;DHT22;48747;50.250;18.848;2023-07-13T09:27:39;22.60;99.90
37356;DHT22;48747;50.250;18.848;2023-07-13T09:29:47;22.50;99.90
37356;DHT22;48747;50.250;18.848;2023-07-13T09:31:53;22.40;99.90
37356;DHT22;48747;50.250;18.848;2023-07-13T09:33:57;22.20;99.90
37356;DHT22;48747;50.250;18.848;2023-07-13T09:36:18;22.10;99.90
37356;DHT22;48747;50.250;18.848;2023-07-13T09:38:29;22.00;99.90
37356;DHT22;48747;50.250;18.848;2023-07-13T09:40:43;21.90;99.90
37356;DHT22;48747;50.250;18.848;2023-07-13T09:42:45;21.50;99.90
37356;DHT22;48747;50.250;18.848;2023-07-13T09:44:53;21.20;99.90
37356;DHT22;48747;50.250;18.848;2023-07-13T09:46:59;21.00;99.90
37356;DHT22;48747;50.250;18.848;2023-07-13T09:49:02;20.60;99.90
37356;DHT22;48747;50.250;18.848;2023-07-13T09:51:09;20.20;99.90
37356;DHT22;48747;50.250;18.848;2023-07-13T09:53:16;19.90;99.90
37356;DHT22;48747;50.250;18.848;2023-07-13T09:55:31;19.50;99.90
37356;DHT22;48747;50.250;18.848;2023-07-13T10:00:25;18.00;99.90
37356;DHT22;48747;50.250;18.848;2023-07-13T10:02:30;17.70;99.90
37356;DHT22;48747;50.250;18.848;2023-07-13T10:04:35;17.50;99.90
37356;DHT22;48747;50.250;18.848;2023-07-13T10:06:42;17.40;99.90
37356;DHT22;48747;50.250;18.848;2023-07-13T10:08:50;17.30;99.90
37356;DHT22;48747;50.250;18.848;2023-07-13T10:11:12;17.30;99.90
37356;DHT22;48747;50.250;18.848;2023-07-13T10:15:37;17.30;99.90
37356;DHT22;48747;50.250;18.848;2023-07-13T10:17:34;17.30;99.90
37356;DHT22;48747;50.250;18.848;2023-07-13T10:19:39;17.30;99.90
37356;DHT22;48747;50.250;18.848;2023-07-13T10:21:59;17.40;99.90
37356;DHT22;48747;50.250;18.848;2023-07-13T10:24:10;17.30;99.90
37356;DHT22;48747;50.250;18.848;2023-07-13T10:26:23;17.40;99.90
37356;DHT22;48747;50.250;18.848;2023-07-13T10:30:42;17.60;99.90
37356;DHT22;48747;50.250;18.848;2023-07-13T10:32:57;17.60;99.90
37356;DHT22;48747;50.250;18.848;2023-07-13T10:34:56;17.70;99.90
37356;DHT22;48747;50.250;18.848;2023-07-13T10:37:03;17.80;99.90
37356;DHT22;48747;50.250;18.848;2023-07-13T10:39:26;17.80;99.90
37356;DHT22;48747;50.250;18.848;2023-07-13T10:41:26;17.80;99.90
37356;DHT22;48747;50.250;18.848;2023-07-13T10:43:43;17.90;99.90
37356;DHT22;48747;50.250;18.848;2023-07-13T10:45:48;18.00;99.90
37356;DHT22;48747;50.250;18.848;2023-07-13T10:47:57;18.10;99.90
37356;DHT22;48747;50.250;18.848;2023-07-13T10:49:58;18.10;99.90
37356;DHT22;48747;50.250;18.848;2023-07-13T10:52:05;18.20;99.90
37356;DHT22;48747;50.250;18.848;2023-07-13T10:54:16;18.30;99.90
37356;DHT22;48747;50.250;18.848;2023-07-13T10:56:31;18.40;99.90
37356;DHT22;48747;50.250;18.848;2023-07-13T10:58:42;18.50;99.90
37356;DHT22;48747;50.250;18.848;2023-07-13T11:03:00;18.70;99.90
37356;DHT22;48747;50.250;18.848;2023-07-13T11:07:29;19.00;99.90
37356;DHT22;48747;50.250;18.848;2023-07-13T11:09:39;19.00;99.90
37356;DHT22;48747;50.250;18.848;2023-07-13T11:11:44;19.00;99.90
37356;DHT22;48747;50.250;18.848;2023-07-13T11:16:03;19.00;99.90
37356;DHT22;48747;50.250;18.848;2023-07-13T11:18:12;19.10;99.90
37356;DHT22;48747;50.250;18.848;2023-07-13T11:22:40;19.10;99.90
37356;DHT22;48747;50.250;18.848;2023-07-13T11:24:48;19.20;99.90
37356;DHT22;48747;50.250;18.848;2023-07-13T11:26:52;19.20;99.90
37356;DHT22;48747;50.250;18.848;2023-07-13T11:28:56;19.40;99.90
37356;DHT22;48747;50.250;18.848;2023-07-13T11:31:01;19.60;99.90
37356;DHT22;48747;50.250;18.848;2023-07-13T11:35:22;19.80;99.90
37356;DHT22;48747;50.250;18.848;2023-07-13T11:37:25;19.80;99.90
37356;DHT22;48747;50.250;18.848;2023-07-13T11:39:37;19.90;99.90
37356;DHT22;48747;50.250;18.848;2023-07-13T11:41:42;19.90;99.90
37356;DHT22;48747;50.250;18.848;2023-07-13T11:43:53;20.00;99.90
37356;DHT22;48747;50.250;18.848;2023-07-13T11:45:57;20.10;99.90
37356;DHT22;48747;50.250;18.848;2023-07-13T11:48:01;20.10;99.90
37356;DHT22;48747;50.250;18.848;2023-07-13T11:50:04;20.10;99.90
37356;DHT22;48747;50.250;18.848;2023-07-13T11:52:13;19.90;99.90
37356;DHT22;48747;50.250;18.848;2023-07-13T11:54:31;20.00;99.90
37356;DHT22;48747;50.250;18.848;2023-07-13T11:56:36;20.10;99.90
37356;DHT22;48747;50.250;18.848;2023-07-13T11:58:40;20.10;99.90
37356;DHT22;48747;50.250;18.848;2023-07-13T12:00:43;20.20;99.90
37356;DHT22;48747;50.250;18.848;2023-07-13T12:02:50;20.30;99.90
37356;DHT22;48747;50.250;18.848;2023-07-13T12:04:54;20.20;99.90
37356;DHT22;48747;50.250;18.848;2023-07-13T12:07:06;20.20;99.90
37356;DHT22;48747;50.250;18.848;2023-07-13T12:09:15;20.20;99.90
37356;DHT22;48747;50.250;18.848;2023-07-13T12:11:22;20.40;99.90
37356;DHT22;48747;50.250;18.848;2023-07-13T12:13:27;20.50;99.90
37356;DHT22;48747;50.250;18.848;2023-07-13T12:15:40;20.60;99.90
37356;DHT22;48747;50.250;18.848;2023-07-13T12:17:45;20.70;99.90
37356;DHT22;48747;50.250;18.848;2023-07-13T12:19:57;20.90;99.90
37356;DHT22;48747;50.250;18.848;2023-07-13T12:21:56;21.00;99.90
37356;DHT22;48747;50.250;18.848;2023-07-13T12:24:01;21.20;99.90
37356;DHT22;48747;50.250;18.848;2023-07-13T12:26:07;21.10;99.90
37356;DHT22;48747;50.250;18.848;2023-07-13T12:28:33;21.10;99.90
37356;DHT22;48747;50.250;18.848;2023-07-13T12:30:35;21.10;99.90
37356;DHT22;48747;50.250;18.848;2023-07-13T12:32:39;21.10;99.90
37356;DHT22;48747;50.250;18.848;2023-07-13T12:34:54;21.30;99.90
37356;DHT22;48747;50.250;18.848;2023-07-13T12:37:02;21.40;99.90
37356;DHT22;48747;50.250;18.848;2023-07-13T12:39:20;21.50;99.90
37356;DHT22;48747;50.250;18.848;2023-07-13T12:43:26;21.60;99.90
37356;DHT22;48747;50.250;18.848;2023-07-13T12:45:30;21.90;99.90
37356;DHT22;48747;50.250;18.848;2023-07-13T12:47:41;22.40;99.90
37356;DHT22;48747;50.250;18.848;2023-07-13T12:49:50;22.60;99.90
37356;DHT22;48747;50.250;18.848;2023-07-13T12:51:59;22.90;99.90
37356;DHT22;48747;50.250;18.848;2023-07-13T12:54:18;22.90;99.90
37356;DHT22;48747;50.250;18.848;2023-07-13T12:56:26;22.90;99.90
37356;DHT22;48747;50.250;18.848;2023-07-13T12:58:37;22.70;99.90
37356;DHT22;48747;50.250;18.848;2023-07-13T13:00:41;22.60;99.90
37356;DHT22;48747;50.250;18.848;2023-07-13T13:02:49;22.60;99.90
37356;DHT22;48747;50.250;18.848;2023-07-13T13:07:16;22.40;99.90
37356;DHT22;48747;50.250;18.848;2023-07-13T13:09:23;22.40;99.90
37356;DHT22;48747;50.250;18.848;2023-07-13T13:11:28;22.90;99.90
37356;DHT22;48747;50.250;18.848;2023-07-13T13:13:32;23.20;99.90
37356;DHT22;48747;50.250;18.848;2023-07-13T13:15:35;23.40;99.90
37356;DHT22;48747;50.250;18.848;2023-07-13T13:17:55;23.60;99.90
37356;DHT22;48747;50.250;18.848;2023-07-13T13:20:04;23.90;99.90
37356;DHT22;48747;50.250;18.848;2023-07-13T13:22:08;24.00;99.90
37356;DHT22;48747;50.250;18.848;2023-07-13T13:24:16;23.90;99.90
37356;DHT22;48747;50.250;18.848;2023-07-13T13:26:22;23.70;99.90
37356;DHT22;48747;50.250;18.848;2023-07-13T13:28:27;23.40;99.90
37356;DHT22;48747;50.250;18.848;2023-07-13T13:30:30;23.30;99.90
37356;DHT22;48747;50.250;18.848;2023-07-13T13:32:33;23.10;99.90
37356;DHT22;48747;50.250;18.848;2023-07-13T13:34:38;23.10;99.90
37356;DHT22;48747;50.250;18.848;2023-07-13T13:36:42;23.10;99.90